Time;durP1;ratioP1;P1;durP2;ratioP2;P2;SDS_P1;SDS_P2;PMS_P1;PMS_P2;Temp;Humidity;BMP_temperature;BMP_pressure;BME280_temperature;BME280_humidity;BME280_pressure;Samples;Min_cycle;Max_cycle;Signal;HPM_P1;HPM_P2
2023/08/23 00:00:07;;;;;;;27.08;16.77;;;13.40;99.90;;;;;;5057230;28;20132;-24
2023/08/23 00:02:33;;;;;;;33.33;20.05;;;13.30;99.90;;;;;;5066923;28;20146;-24
2023/08/23 00:04:59;;;;;;;31.73;19.40;;;13.40;99.90;;;;;;5072384;28;20602;-23
2023/08/23 00:07:25;;;;;;;40.00;21.38;;;13.40;99.90;;;;;;5057172;28;20398;-24
2023/08/23 00:09:51;;;;;;;34.40;19.05;;;13.60;99.90;;;;;;5056107;28;20044;-24
2023/08/23 00:12:17;;;;;;;23.55;14.85;;;13.50;99.90;;;;;;5056418;28;20457;-23
2023/08/23 00:14:43;;;;;;;24.17;15.15;;;13.50;99.90;;;;;;5068501;28;20053;-23
2023/08/23 00:17:09;;;;;;;29.23;16.08;;;13.40;99.90;;;;;;5064100;28;20057;-23
2023/08/23 00:19:34;;;;;;;32.55;17.45;;;13.30;99.90;;;;;;5071462;28;20070;-24
2023/08/23 00:22:02;;;;;;;29.67;17.42;;;13.30;99.90;;;;;;5075491;28;20044;-23
2023/08/23 00:24:28;;;;;;;21.30;13.15;;;13.30;99.90;;;;;;5076585;28;20406;-23
2023/08/23 00:26:54;;;;;;;20.13;12.18;;;13.30;99.90;;;;;;5075368;28;20040;-23
2023/08/23 00:29:20;;;;;;;15.68;10.40;;;13.30;99.90;;;;;;5074197;28;20055;-23
2023/08/23 00:31:45;;;;;;;31.30;11.57;;;13.20;99.90;;;;;;5075779;28;20052;-24
2023/08/23 00:34:11;;;;;;;22.15;10.52;;;13.20;99.90;;;;;;5076121;28;20045;-23
2023/08/23 00:36:37;;;;;;;80.68;13.90;;;13.10;99.90;;;;;;5076581;28;20037;-24
2023/08/23 00:39:02;;;;;;;36.97;10.85;;;13.00;99.90;;;;;;5074297;28;20469;-23
2023/08/23 00:41:28;;;;;;;18.63;9.13;;;12.90;99.90;;;;;;5047371;28;20054;-23
2023/08/23 00:43:54;;;;;;;23.50;9.30;;;13.00;99.90;;;;;;5062468;28;20052;-23
2023/08/23 00:46:21;;;;;;;133.60;14.45;;;12.90;99.90;;;;;;5064142;28;20048;-23
2023/08/23 00:48:49;;;;;;;271.85;21.05;;;12.90;99.90;;;;;;5055893;28;20053;-23
2023/08/23 00:51:15;;;;;;;150.63;17.08;;;12.90;99.90;;;;;;5056136;28;20483;-23
2023/08/23 00:53:41;;;;;;;155.85;15.35;;;12.90;99.90;;;;;;5058143;28;20098;-23
2023/08/23 00:56:07;;;;;;;75.15;12.35;;;12.90;99.90;;;;;;5049916;28;20131;-23
2023/08/23 00:58:33;;;;;;;178.60;15.52;;;12.90;99.90;;;;;;5058473;28;20055;-23
2023/08/23 01:01:00;;;;;;;132.88;14.75;;;12.90;99.90;;;;;;5055070;28;20538;-22
2023/08/23 01:03:26;;;;;;;207.73;17.05;;;12.90;99.90;;;;;;5067966;28;20102;-23
2023/08/23 01:06:10;;;;;;;120.25;12.85;;;12.90;99.90;;;;;;5055575;28;20072;-23
2023/08/23 01:08:39;;;;;;;92.95;12.27;;;12.90;99.90;;;;;;5062243;28;20098;-23
2023/08/23 01:11:34;;;;;;;123.93;13.40;;;12.90;99.90;;;;;;5056361;28;20092;-23
2023/08/23 01:14:19;;;;;;;161.90;16.60;;;12.90;99.90;;;;;;5055169;28;20053;-23
2023/08/23 01:16:48;;;;;;;124.90;15.90;;;12.80;99.90;;;;;;5055627;28;20153;-23
2023/08/23 01:19:33;;;;;;;212.02;19.15;;;12.80;99.90;;;;;;5062895;28;20048;-22
2023/08/23 01:22:03;;;;;;;85.57;13.43;;;12.70;99.90;;;;;;5054846;28;20128;-22
2023/08/23 01:24:30;;;;;;;24.98;11.50;;;12.70;99.90;;;;;;5046080;28;20045;-23
2023/08/23 01:26:55;;;;;;;47.10;12.90;;;12.70;99.90;;;;;;5065044;28;20044;-23
2023/08/23 01:29:21;;;;;;;54.40;15.60;;;12.70;99.90;;;;;;5066469;28;20045;-23
2023/08/23 01:31:51;;;;;;;55.60;14.90;;;12.70;99.90;;;;;;5037332;28;20116;-23
2023/08/23 01:34:28;;;;;;;62.38;15.38;;;12.70;99.90;;;;;;5058017;28;20123;-22
2023/08/23 01:36:54;;;;;;;29.70;12.18;;;12.70;99.90;;;;;;5068671;28;20617;-23
2023/08/23 01:39:24;;;;;;;107.55;16.33;;;12.70;99.90;;;;;;5057295;28;20048;-22
2023/08/23 01:41:50;;;;;;;45.97;14.57;;;12.70;99.90;;;;;;5060433;28;20132;-23
2023/08/23 01:44:16;;;;;;;40.90;12.82;;;12.80;99.90;;;;;;5054227;28;20044;-22
2023/08/23 01:46:42;;;;;;;121.35;17.38;;;12.80;99.90;;;;;;5068679;28;20041;-23
2023/08/23 01:49:08;;;;;;;94.05;17.60;;;12.90;99.90;;;;;;5053823;28;20045;-23
2023/08/23 01:51:34;;;;;;;62.47;16.83;;;12.90;99.90;;;;;;5061511;28;20076;-23
2023/08/23 01:53:59;;;;;;;146.82;18.65;;;13.00;99.90;;;;;;5054684;28;20072;-23
2023/08/23 01:56:27;;;;;;;129.68;19.92;;;13.10;99.90;;;;;;5054429;28;20395;-23
2023/08/23 01:58:53;;;;;;;251.13;22.45;;;13.00;99.90;;;;;;5054863;28;20045;-22
2023/08/23 02:01:19;;;;;;;226.32;22.48;;;13.10;99.90;;;;;;5063575;28;20049;-22
2023/08/23 02:03:44;;;;;;;267.33;25.10;;;13.10;99.90;;;;;;5054733;28;20051;-23
2023/08/23 02:06:10;;;;;;;87.80;17.30;;;13.10;99.90;;;;;;5060114;28;20123;-23
2023/08/23 02:08:36;;;;;;;195.98;20.38;;;13.10;99.90;;;;;;5066073;28;20040;-23
2023/08/23 02:11:02;;;;;;;152.32;21.38;;;13.10;99.90;;;;;;5038585;28;20476;-22
2023/08/23 02:13:27;;;;;;;93.82;17.27;;;13.10;99.90;;;;;;5059743;28;20041;-23
2023/08/23 02:15:53;;;;;;;170.57;21.52;;;13.20;99.90;;;;;;5035786;28;20521;-22
2023/08/23 02:18:21;;;;;;;154.65;19.70;;;13.10;99.90;;;;;;5056223;28;20134;-23
2023/08/23 02:20:54;;;;;;;277.42;29.05;;;13.20;99.90;;;;;;5054348;28;20045;-23
2023/08/23 02:23:20;;;;;;;136.30;18.55;;;13.20;99.90;;;;;;5053874;28;20049;-23
2023/08/23 02:25:46;;;;;;;168.57;22.17;;;13.20;99.90;;;;;;5054062;28;20043;-23
2023/08/23 02:28:11;;;;;;;64.75;15.50;;;13.20;99.90;;;;;;5066198;28;20045;-22
2023/08/23 02:30:37;;;;;;;98.00;19.90;;;13.20;99.90;;;;;;5073553;28;20044;-23
2023/08/23 02:33:03;;;;;;;46.45;15.95;;;13.20;99.90;;;;;;5053768;28;20394;-22
2023/08/23 02:35:29;;;;;;;84.90;17.98;;;13.20;99.90;;;;;;5053876;28;20041;-23
2023/08/23 02:37:57;;;;;;;70.60;16.90;;;13.10;99.90;;;;;;5061065;28;20101;-22
2023/08/23 02:40:23;;;;;;;59.83;18.85;;;13.10;99.90;;;;;;5067795;28;20110;-22
2023/08/23 02:42:49;;;;;;;63.72;17.67;;;13.10;99.90;;;;;;5056187;28;20494;-22
2023/08/23 02:45:17;;;;;;;105.55;22.38;;;13.10;99.90;;;;;;5042309;28;20083;-22
2023/08/23 02:47:46;;;;;;;37.15;17.30;;;13.10;99.90;;;;;;5053806;28;20045;-22
2023/08/23 02:50:11;;;;;;;48.92;16.13;;;13.20;99.90;;;;;;5053660;28;20207;-23
2023/08/23 02:52:37;;;;;;;82.07;19.02;;;13.30;99.90;;;;;;5054441;28;20084;-23
2023/08/23 02:55:03;;;;;;;55.42;18.50;;;13.30;99.90;;;;;;5053414;28;20094;-24
2023/08/23 02:57:29;;;;;;;52.75;19.02;;;13.50;99.90;;;;;;5052611;28;20053;-23
2023/08/23 02:59:54;;;;;;;43.65;19.60;;;13.50;99.90;;;;;;5058885;28;20060;-23
2023/08/23 03:02:20;;;;;;;60.60;21.45;;;13.60;99.90;;;;;;5062752;28;20048;-22
2023/08/23 03:04:46;;;;;;;46.30;19.48;;;13.70;99.90;;;;;;5070283;28;20045;-22
2023/08/23 03:07:11;;;;;;;77.53;24.05;;;13.80;99.90;;;;;;5052421;28;20041;-23
2023/08/23 03:09:37;;;;;;;137.05;26.25;;;13.90;99.90;;;;;;5052705;28;20045;-22
2023/08/23 03:12:03;;;;;;;74.82;22.60;;;14.00;99.90;;;;;;5058117;28;20124;-22
2023/08/23 03:14:32;;;;;;;58.28;21.48;;;14.00;99.90;;;;;;5045966;28;20052;-22
2023/08/23 03:16:58;;;;;;;63.38;22.48;;;14.00;99.90;;;;;;5057080;28;20049;-22
2023/08/23 03:19:24;;;;;;;46.88;21.35;;;13.90;99.90;;;;;;5056175;28;20156;-22
2023/08/23 03:21:49;;;;;;;63.40;23.60;;;14.00;99.90;;;;;;5065290;28;20566;-22
2023/08/23 03:24:15;;;;;;;55.10;22.73;;;14.00;99.90;;;;;;5051840;28;20045;-22
2023/08/23 03:26:41;;;;;;;46.40;21.40;;;14.00;99.90;;;;;;5036492;28;20434;-22
2023/08/23 03:29:07;;;;;;;46.38;20.15;;;14.00;99.90;;;;;;5052076;28;20048;-23
2023/08/23 03:31:33;;;;;;;47.38;20.40;;;14.10;99.90;;;;;;5052610;28;20491;-22
2023/08/23 03:33:59;;;;;;;36.15;19.10;;;14.10;99.90;;;;;;5053841;28;20055;-22
2023/08/23 03:36:24;;;;;;;57.17;21.63;;;14.00;99.90;;;;;;5044848;28;20470;-22
2023/08/23 03:38:50;;;;;;;60.85;23.13;;;14.00;99.90;;;;;;5053286;28;20041;-22
2023/08/23 03:41:16;;;;;;;62.05;21.35;;;13.90;99.90;;;;;;5052768;28;20041;-22
2023/08/23 03:43:41;;;;;;;41.92;18.85;;;13.90;99.90;;;;;;5051885;28;20438;-22
2023/08/23 03:46:07;;;;;;;48.72;19.67;;;13.90;99.90;;;;;;5065926;28;20040;-22
2023/08/23 03:48:33;;;;;;;46.78;18.80;;;13.80;99.90;;;;;;5061093;28;20077;-22
2023/08/23 03:50:59;;;;;;;73.68;21.95;;;13.70;99.90;;;;;;5053118;28;20363;-22
2023/08/23 03:53:28;;;;;;;39.45;18.40;;;13.80;99.90;;;;;;5052966;28;20045;-22
2023/08/23 03:55:54;;;;;;;36.58;17.75;;;13.80;99.90;;;;;;5052996;28;20033;-22
2023/08/23 03:58:20;;;;;;;39.08;18.80;;;13.80;99.90;;;;;;5052996;28;20045;-22
2023/08/23 04:00:53;;;;;;;55.25;21.65;;;13.70;99.90;;;;;;5053131;28;20087;-22
2023/08/23 04:03:19;;;;;;;49.75;20.92;;;13.70;99.90;;;;;;5052668;28;20109;-22
2023/08/23 04:05:44;;;;;;;43.17;19.45;;;13.90;99.90;;;;;;5056683;28;20166;-22
2023/08/23 04:08:10;;;;;;;44.47;20.05;;;13.80;99.90;;;;;;5053757;28;20597;-22
2023/08/23 04:10:39;;;;;;;45.10;21.67;;;13.90;99.90;;;;;;5052894;28;20045;-22
2023/08/23 04:13:05;;;;;;;52.83;21.40;;;13.80;99.90;;;;;;5066962;28;20052;-22
2023/08/23 04:15:30;;;;;;;71.20;24.10;;;13.80;99.90;;;;;;5058765;28;20052;-22
2023/08/23 04:17:56;;;;;;;57.63;22.27;;;13.70;99.90;;;;;;5068929;28;20052;-22
2023/08/23 04:20:22;;;;;;;41.05;19.05;;;13.60;99.90;;;;;;5058572;28;20127;-22
2023/08/23 04:22:47;;;;;;;64.22;19.80;;;13.60;99.90;;;;;;5059435;28;20119;-22
2023/08/23 04:25:13;;;;;;;68.93;21.70;;;13.60;99.90;;;;;;5056682;28;20116;-22
2023/08/23 04:27:39;;;;;;;53.42;21.75;;;13.70;99.90;;;;;;5065253;28;20040;-22
2023/08/23 04:30:06;;;;;;;67.03;21.60;;;13.60;99.90;;;;;;5067947;28;20128;-22
2023/08/23 04:32:32;;;;;;;61.55;20.75;;;13.60;99.90;;;;;;5055248;28;20061;-22
2023/08/23 04:34:58;;;;;;;68.07;21.05;;;13.50;99.90;;;;;;5061413;28;20132;-23
2023/08/23 04:37:24;;;;;;;69.93;20.67;;;13.50;99.90;;;;;;5072456;28;20521;-22
2023/08/23 04:39:49;;;;;;;114.75;23.08;;;13.50;99.90;;;;;;5064417;28;20044;-22
2023/08/23 04:42:15;;;;;;;87.93;24.92;;;13.60;99.90;;;;;;5057979;28;20101;-22
2023/08/23 04:44:41;;;;;;;65.97;22.70;;;13.60;99.90;;;;;;5057490;28;20056;-23
2023/08/23 04:47:07;;;;;;;58.55;19.88;;;13.60;99.90;;;;;;5060320;28;20045;-23
2023/08/23 04:49:32;;;;;;;40.88;19.88;;;13.70;99.90;;;;;;5044692;28;20052;-22
2023/08/23 04:51:58;;;;;;;50.20;21.45;;;13.70;99.90;;;;;;5056477;28;20120;-22
2023/08/23 04:54:24;;;;;;;46.72;22.17;;;13.60;99.90;;;;;;5056081;28;20068;-23
2023/08/23 04:56:50;;;;;;;33.90;18.73;;;13.60;99.90;;;;;;5054274;28;20138;-22
2023/08/23 04:59:15;;;;;;;43.17;22.02;;;13.70;99.90;;;;;;5056549;28;20508;-22
2023/08/23 05:01:41;;;;;;;36.25;20.10;;;13.80;99.90;;;;;;5032020;28;20076;-22
2023/08/23 05:04:07;;;;;;;47.15;23.42;;;13.90;99.90;;;;;;5055893;28;20051;-22
2023/08/23 05:06:35;;;;;;;67.90;25.73;;;13.90;99.90;;;;;;5055365;28;20041;-22
2023/08/23 05:09:04;;;;;;;62.75;24.63;;;14.00;99.90;;;;;;5054652;28;20051;-22
2023/08/23 05:11:34;;;;;;;67.93;26.17;;;13.90;99.90;;;;;;5059243;28;20066;-22
2023/08/23 05:14:00;;;;;;;66.88;25.77;;;14.00;99.90;;;;;;5054618;28;20048;-22
2023/08/23 05:16:26;;;;;;;56.33;24.73;;;14.10;99.90;;;;;;5070042;28;20107;-23
2023/08/23 05:18:52;;;;;;;53.97;24.38;;;14.00;99.90;;;;;;5066830;28;20064;-22
2023/08/23 05:21:17;;;;;;;60.55;26.98;;;14.10;99.90;;;;;;5055873;28;20471;-22
2023/08/23 05:23:46;;;;;;;71.63;28.00;;;14.20;99.90;;;;;;5052207;28;20057;-23
2023/08/23 05:26:11;;;;;;;77.63;29.50;;;14.20;99.90;;;;;;5074566;28;20136;-23
2023/08/23 05:28:37;;;;;;;86.95;31.10;;;14.30;99.90;;;;;;5074676;28;20131;-23
2023/08/23 05:31:03;;;;;;;79.45;30.38;;;14.20;99.90;;;;;;5072937;28;20548;-22
2023/08/23 05:33:32;;;;;;;79.65;31.17;;;14.30;99.90;;;;;;5061969;28;20044;-23
2023/08/23 05:35:58;;;;;;;66.40;27.88;;;14.30;99.90;;;;;;5056046;28;20417;-23
2023/08/23 05:38:24;;;;;;;66.85;28.77;;;14.30;99.90;;;;;;5054582;28;20063;-23
2023/08/23 05:40:51;;;;;;;60.70;28.73;;;14.40;99.90;;;;;;5037566;28;20044;-23
2023/08/23 05:43:17;;;;;;;70.30;29.35;;;14.40;99.90;;;;;;5059825;28;20049;-22
2023/08/23 05:45:43;;;;;;;58.83;27.27;;;14.50;99.90;;;;;;5060163;28;20501;-22
2023/08/23 05:48:09;;;;;;;61.65;27.40;;;14.50;99.90;;;;;;5065823;28;20072;-22
2023/08/23 05:50:37;;;;;;;61.50;27.05;;;14.50;99.90;;;;;;5060346;28;20127;-22
2023/08/23 05:53:09;;;;;;;58.85;26.92;;;14.50;99.90;;;;;;5059384;28;20041;-22
2023/08/23 05:55:37;;;;;;;62.23;27.87;;;14.60;99.90;;;;;;5070478;28;20051;-23
2023/08/23 05:58:03;;;;;;;63.72;30.27;;;14.70;99.90;;;;;;5074803;28;20293;-23
2023/08/23 06:00:29;;;;;;;61.58;28.30;;;14.70;99.90;;;;;;5072373;28;20048;-22
2023/08/23 06:02:54;;;;;;;55.50;25.35;;;14.80;99.90;;;;;;5071476;28;20045;-22
2023/08/23 06:05:20;;;;;;;54.47;26.15;;;14.80;99.90;;;;;;5055328;28;20461;-22
2023/08/23 06:07:46;;;;;;;59.30;27.40;;;14.80;99.90;;;;;;5054413;28;20131;-23
2023/08/23 06:10:11;;;;;;;60.55;27.60;;;14.90;99.90;;;;;;5057263;28;20120;-23
2023/08/23 06:12:37;;;;;;;53.28;26.67;;;14.90;99.90;;;;;;5056961;28;20044;-23
2023/08/23 06:15:04;;;;;;;55.83;27.67;;;14.90;99.90;;;;;;5059100;28;20041;-22
2023/08/23 06:17:30;;;;;;;52.22;28.63;;;15.00;99.90;;;;;;5068350;28;20127;-22
2023/08/23 06:19:56;;;;;;;53.78;27.52;;;15.10;99.90;;;;;;5060138;28;20120;-22
2023/08/23 06:22:22;;;;;;;47.45;26.33;;;15.20;99.90;;;;;;5074395;28;20044;-24
2023/08/23 06:24:48;;;;;;;51.20;26.55;;;15.30;99.90;;;;;;5067893;28;20449;-23
2023/08/23 06:27:14;;;;;;;47.83;26.50;;;15.40;99.90;;;;;;5037202;28;20053;-23
2023/08/23 06:29:40;;;;;;;45.17;25.73;;;15.50;99.90;;;;;;5054317;28;20040;-23
2023/08/23 06:32:07;;;;;;;54.47;28.75;;;15.60;99.90;;;;;;5053138;28;20057;-23
2023/08/23 06:34:33;;;;;;;47.97;27.92;;;15.70;99.90;;;;;;5053587;28;20053;-22
2023/08/23 06:36:59;;;;;;;43.30;25.25;;;15.80;99.90;;;;;;5052845;28;20045;-23
2023/08/23 06:39:25;;;;;;;47.88;26.15;;;15.80;99.90;;;;;;5054012;28;20060;-23
2023/08/23 06:41:50;;;;;;;41.97;26.80;;;16.00;99.90;;;;;;5053777;28;20045;-23
2023/08/23 06:44:16;;;;;;;41.58;25.05;;;16.10;99.90;;;;;;5037342;28;20057;-23
2023/08/23 06:46:42;;;;;;;45.75;28.25;;;16.20;99.90;;;;;;5053997;28;20175;-23
2023/08/23 06:49:08;;;;;;;36.92;24.17;;;16.40;99.90;;;;;;5053930;28;20057;-23
2023/08/23 06:51:33;;;;;;;40.08;26.67;;;16.40;99.90;;;;;;5067800;28;20040;-23
2023/08/23 06:53:59;;;;;;;38.90;25.92;;;16.60;99.90;;;;;;5069550;28;20048;-22
2023/08/23 06:56:26;;;;;;;34.85;24.10;;;16.70;99.90;;;;;;5053679;28;20402;-23
2023/08/23 06:58:52;;;;;;;31.00;23.15;;;16.80;99.90;;;;;;5056092;28;20115;-23
2023/08/23 07:01:18;;;;;;;31.05;22.17;;;16.90;99.90;;;;;;5066385;28;20464;-22
2023/08/23 07:03:44;;;;;;;36.28;25.42;;;16.80;99.90;;;;;;5065501;28;20124;-23
2023/08/23 07:06:14;;;;;;;31.83;22.98;;;16.90;99.90;;;;;;5055976;28;20102;-23
2023/08/23 07:08:41;;;;;;;26.05;19.67;;;17.10;99.90;;;;;;5053095;28;20053;-23
2023/08/23 07:11:08;;;;;;;23.90;18.85;;;17.20;99.90;;;;;;5053319;28;20053;-23
2023/08/23 07:13:36;;;;;;;29.00;21.40;;;17.20;99.90;;;;;;5052369;28;20041;-23
2023/08/23 07:16:03;;;;;;;26.30;19.30;;;17.40;99.90;;;;;;5053824;28;20490;-24
2023/08/23 07:18:29;;;;;;;28.15;20.40;;;17.70;99.90;;;;;;5059500;28;20199;-23
2023/08/23 07:20:55;;;;;;;24.48;19.92;;;18.10;99.90;;;;;;5055844;28;20131;-24
2023/08/23 07:23:21;;;;;;;23.05;18.42;;;18.10;99.90;;;;;;5074190;28;20083;-23
2023/08/23 07:25:46;;;;;;;27.15;18.85;;;18.30;99.90;;;;;;5070043;28;20053;-23
2023/08/23 07:28:12;;;;;;;27.00;19.23;;;18.40;99.90;;;;;;5054349;28;20041;-24
2023/08/23 07:30:43;;;;;;;20.42;17.45;;;18.30;99.90;;;;;;5053581;28;20122;-23
2023/08/23 07:33:09;;;;;;;20.70;16.08;;;18.30;99.90;;;;;;5054076;28;20049;-25
2023/08/23 07:35:35;;;;;;;22.67;16.38;;;18.30;99.90;;;;;;5052503;28;20052;-24
2023/08/23 07:38:00;;;;;;;21.02;16.98;;;18.30;99.90;;;;;;5053670;28;20045;-23
2023/08/23 07:40:26;;;;;;;19.55;16.85;;;18.30;99.90;;;;;;5035634;28;20048;-23
2023/08/23 07:42:52;;;;;;;23.08;16.33;;;18.40;99.90;;;;;;5053297;28;20045;-23
2023/08/23 07:45:18;;;;;;;21.63;16.02;;;18.60;99.90;;;;;;5053347;28;20521;-23
2023/08/23 07:47:43;;;;;;;19.67;15.48;;;18.90;99.90;;;;;;5036007;28;20133;-24
2023/08/23 07:50:10;;;;;;;19.88;16.88;;;19.20;99.90;;;;;;5040578;28;20049;-24
2023/08/23 07:52:36;;;;;;;20.25;14.25;;;19.30;99.90;;;;;;5057182;28;20052;-23
2023/08/23 07:55:01;;;;;;;20.80;16.73;;;19.40;99.90;;;;;;5055454;28;20049;-23
2023/08/23 07:57:27;;;;;;;20.60;16.00;;;19.30;99.90;;;;;;5068496;28;20091;-23
2023/08/23 07:59:55;;;;;;;21.77;16.55;;;19.40;99.90;;;;;;5056832;28;20433;-23
2023/08/23 08:02:22;;;;;;;19.38;14.32;;;19.60;99.90;;;;;;5064349;28;20097;-23
2023/08/23 08:04:48;;;;;;;17.55;14.95;;;19.60;99.90;;;;;;5072093;28;20052;-23
2023/08/23 08:07:14;;;;;;;19.48;14.70;;;19.60;99.90;;;;;;5057806;28;20044;-23
2023/08/23 08:09:39;;;;;;;25.08;15.95;;;19.70;99.90;;;;;;5057064;28;20171;-23
2023/08/23 08:12:05;;;;;;;20.92;14.52;;;19.70;99.90;;;;;;5055989;28;20056;-23
2023/08/23 08:14:31;;;;;;;18.08;14.10;;;19.80;99.90;;;;;;5056709;28;20085;-23
2023/08/23 08:16:57;;;;;;;19.92;14.02;;;19.90;99.90;;;;;;5056622;28;20037;-23
2023/08/23 08:19:22;;;;;;;18.25;13.63;;;20.00;99.90;;;;;;5039840;28;20052;-23
2023/08/23 08:21:48;;;;;;;17.15;13.63;;;20.20;99.90;;;;;;5057590;28;20051;-24
2023/08/23 08:24:14;;;;;;;19.35;15.13;;;20.20;99.90;;;;;;5056750;28;20483;-23
2023/08/23 08:26:40;;;;;;;17.20;13.75;;;20.30;99.90;;;;;;5065147;28;20047;-23
2023/08/23 08:29:05;;;;;;;15.30;13.30;;;20.20;99.90;;;;;;5059744;28;20040;-23
2023/08/23 08:31:31;;;;;;;20.27;15.13;;;20.30;99.90;;;;;;5073903;28;20394;-23
2023/08/23 08:33:59;;;;;;;19.95;14.95;;;20.40;99.90;;;;;;5057506;28;20041;-23
2023/08/23 08:36:25;;;;;;;15.55;12.93;;;20.40;99.90;;;;;;5038874;28;20102;-23
2023/08/23 08:38:50;;;;;;;18.35;15.55;;;20.60;99.90;;;;;;5056127;28;20487;-24
2023/08/23 08:41:16;;;;;;;20.30;15.85;;;20.70;99.90;;;;;;5055911;28;20049;-23
2023/08/23 08:43:44;;;;;;;17.63;14.00;;;20.80;99.90;;;;;;5063064;28;20041;-24
2023/08/23 08:46:09;;;;;;;17.08;14.45;;;21.00;99.90;;;;;;5063940;28;20053;-23
2023/08/23 08:48:35;;;;;;;18.35;14.23;;;21.10;99.90;;;;;;5056103;28;20082;-24
2023/08/23 08:51:03;;;;;;;21.10;14.63;;;21.30;99.90;;;;;;5066297;28;20048;-24
2023/08/23 08:53:33;;;;;;;15.18;12.75;;;21.40;99.90;;;;;;5074680;28;20112;-24
2023/08/23 08:56:00;;;;;;;17.77;13.45;;;21.50;99.90;;;;;;5073613;28;20044;-24
2023/08/23 08:58:28;;;;;;;21.55;14.38;;;21.60;99.90;;;;;;5075405;28;20474;-24
2023/08/23 09:00:58;;;;;;;17.88;14.38;;;21.70;99.90;;;;;;5057005;28;20514;-23
2023/08/23 09:03:26;;;;;;;16.13;13.15;;;21.70;99.90;;;;;;5076102;28;20040;-24
2023/08/23 09:05:52;;;;;;;20.77;13.23;;;21.80;90.10;;;;;;5037350;28;20044;-24
2023/08/23 09:08:18;;;;;;;15.02;12.30;;;22.00;51.30;;;;;;5055641;28;20483;-24
2023/08/23 09:10:44;;;;;;;16.60;11.02;;;22.30;23.60;;;;;;5053950;28;20398;-24
2023/08/23 09:13:10;;;;;;;14.98;10.43;;;22.50;1.00;;;;;;5064144;28;20047;-24
2023/08/23 09:15:36;;;;;;;17.27;12.52;;;22.80;1.00;;;;;;5075534;28;20131;-24
2023/08/23 09:18:03;;;;;;;15.75;12.43;;;22.80;99.90;;;;;;5061945;28;20057;-24
2023/08/23 09:20:28;;;;;;;16.70;11.93;;;22.80;99.90;;;;;;5055532;28;20049;-24
2023/08/23 09:22:55;;;;;;;16.63;12.63;;;22.80;99.90;;;;;;5055674;28;20056;-24
2023/08/23 09:25:23;;;;;;;16.80;11.18;;;22.80;99.90;;;;;;5055001;28;20127;-24
2023/08/23 09:27:49;;;;;;;15.90;11.70;;;22.60;99.90;;;;;;5055532;28;20041;-25
2023/08/23 09:30:15;;;;;;;13.00;11.52;;;22.60;99.90;;;;;;5054310;28;20056;-24
2023/08/23 09:32:42;;;;;;;16.40;10.90;;;22.80;99.90;;;;;;5054823;28;20436;-24
2023/08/23 09:35:12;;;;;;;13.77;9.00;;;23.20;99.90;;;;;;5038477;28;20091;-23
2023/08/23 09:37:45;;;;;;;17.25;10.38;;;24.00;1.00;;;;;;5054030;28;20044;-24
2023/08/23 09:40:25;;;;;;;12.55;9.05;;;24.50;99.90;;;;;;5055101;28;20503;-25
2023/08/23 09:42:52;;;;;;;13.85;9.30;;;25.30;1.00;;;;;;5054958;28;20541;-24
2023/08/23 09:45:21;;;;;;;12.57;7.85;;;25.90;99.90;;;;;;5053672;28;20045;-24
2023/08/23 09:47:58;;;;;;;8.40;6.00;;;25.90;1.00;;;;;;5075687;28;20051;-25
2023/08/23 09:50:25;;;;;;;8.77;6.45;;;25.80;1.00;;;;;;5073541;28;20054;-26
2023/08/23 09:53:00;;;;;;;10.70;6.00;;;25.40;99.90;;;;;;5074873;28;20336;-25
2023/08/23 09:55:26;;;;;;;11.30;6.32;;;25.00;95.70;;;;;;5074020;28;20076;-26
2023/08/23 09:57:55;;;;;;;11.02;6.85;;;25.40;99.90;;;;;;5056711;28;20556;-25
2023/08/23 10:00:23;;;;;;;15.00;8.30;;;25.90;99.90;;;;;;5054908;28;20048;-26
2023/08/23 10:02:49;;;;;;;11.23;6.90;;;26.30;99.90;;;;;;5054390;28;20060;-26
2023/08/23 10:05:18;;;;;;;11.73;6.25;;;26.00;24.40;;;;;;5054811;28;20049;-26
2023/08/23 10:07:44;;;;;;;7.63;4.97;;;26.20;99.90;;;;;;5053721;28;20530;-26
2023/08/23 10:10:11;;;;;;;11.23;4.82;;;26.50;62.40;;;;;;5054600;28;20085;-25
2023/08/23 10:12:47;;;;;;;8.40;4.53;;;26.80;99.90;;;;;;5054172;28;20505;-26
2023/08/23 10:15:16;;;;;;;7.82;4.13;;;26.40;99.90;;;;;;5054506;28;20456;-27
2023/08/23 10:17:45;;;;;;;5.45;3.00;;;26.70;99.90;;;;;;5052802;28;20457;-26
2023/08/23 10:20:11;;;;;;;6.85;4.30;;;26.50;99.90;;;;;;5061304;28;20059;-27
2023/08/23 10:22:39;;;;;;;7.53;5.22;;;26.30;99.90;;;;;;5054440;28;20045;-27
2023/08/23 10:25:17;;;;;;;10.57;5.40;;;26.30;1.00;;;;;;5054373;28;20122;-26
2023/08/23 10:27:48;;;;;;;10.35;6.80;;;26.70;99.90;;;;;;5054034;28;20380;-25
2023/08/23 10:30:25;;;;;;;8.52;7.28;;;26.70;99.90;;;;;;5053885;28;20120;-25
2023/08/23 10:32:52;;;;;;;7.38;5.13;;;27.00;99.90;;;;;;5054215;28;20499;-26
2023/08/23 10:35:32;;;;;;;9.07;5.53;;;27.30;99.90;;;;;;5054145;28;20048;-26
2023/08/23 10:37:58;;;;;;;7.82;4.47;;;27.40;99.90;;;;;;5054930;28;20067;-26
2023/08/23 10:40:28;;;;;;;8.20;5.38;;;27.30;99.90;;;;;;5055364;28;20494;-26
2023/08/23 10:42:54;;;;;;;9.32;4.05;;;27.40;99.90;;;;;;5058321;28;20048;-26
2023/08/23 10:45:20;;;;;;;5.25;3.30;;;27.40;99.90;;;;;;5056938;28;20049;-24
2023/08/23 10:47:50;;;;;;;6.25;3.65;;;27.50;16.60;;;;;;5070075;28;20045;-26
2023/08/23 10:50:17;;;;;;;9.23;5.00;;;27.30;1.00;;;;;;5067138;28;20123;-26
2023/08/23 10:52:43;;;;;;;7.50;4.07;;;26.90;1.00;;;;;;5054871;28;20525;-26
2023/08/23 10:55:09;;;;;;;6.80;3.58;;;27.00;99.90;;;;;;5057398;28;20044;-26
2023/08/23 10:57:35;;;;;;;7.85;5.00;;;26.90;95.90;;;;;;5072201;28;20387;-26
2023/08/23 11:00:02;;;;;;;11.07;6.03;;;27.10;99.90;;;;;;5072914;28;20074;-27
2023/08/23 11:02:31;;;;;;;6.78;4.00;;;26.80;99.90;;;;;;5074385;28;20045;-26
2023/08/23 11:04:57;;;;;;;8.68;5.47;;;27.10;99.90;;;;;;5074057;28;20040;-27
2023/08/23 11:07:26;;;;;;;10.93;3.40;;;27.30;99.90;;;;;;5067615;28;20094;-27
2023/08/23 11:09:54;;;;;;;6.13;3.47;;;27.60;90.10;;;;;;5054481;28;20044;-26
2023/08/23 11:12:20;;;;;;;7.10;4.10;;;27.20;1.00;;;;;;5055955;28;20040;-27
2023/08/23 11:14:45;;;;;;;4.93;3.35;;;27.10;1.00;;;;;;5063941;28;20078;-24
2023/08/23 11:17:11;;;;;;;6.13;2.90;;;27.10;33.90;;;;;;5073074;28;20041;-27
2023/08/23 11:19:41;;;;;;;6.13;3.08;;;27.60;1.00;;;;;;5057643;28;20053;-27
2023/08/23 11:22:07;;;;;;;8.95;3.13;;;27.50;1.00;;;;;;5068510;28;20045;-27
2023/08/23 11:24:33;;;;;;;4.80;2.47;;;27.90;1.00;;;;;;5053879;28;20041;-27
2023/08/23 11:26:58;;;;;;;5.55;1.40;;;28.30;1.00;;;;;;5055979;28;20418;-27
2023/08/23 11:29:25;;;;;;;5.28;1.90;;;28.10;99.90;;;;;;5052064;28;20044;-27
2023/08/23 11:31:54;;;;;;;7.47;3.38;;;28.00;99.90;;;;;;5053862;28;20091;-25
2023/08/23 11:34:21;;;;;;;7.93;1.80;;;28.00;99.90;;;;;;5052366;28;20048;-28
2023/08/23 11:36:46;;;;;;;6.22;1.70;;;28.30;99.90;;;;;;5054049;28;20037;-25
2023/08/23 11:39:14;;;;;;;4.30;1.90;;;28.00;99.90;;;;;;5063447;28;20548;-27
2023/08/23 11:41:41;;;;;;;5.05;1.90;;;28.10;99.90;;;;;;5016301;28;20465;-26
2023/08/23 11:44:07;;;;;;;4.75;2.53;;;28.00;91.20;;;;;;5061457;28;20045;-26
2023/08/23 11:46:38;;;;;;;5.07;2.10;;;28.20;99.90;;;;;;5055553;28;20044;-27
2023/08/23 11:49:05;;;;;;;6.00;1.73;;;28.10;99.90;;;;;;5058865;28;20044;-27
2023/08/23 11:51:44;;;;;;;3.75;1.10;;;28.20;99.90;;;;;;5060687;28;20074;-27
2023/08/23 11:54:10;;;;;;;5.72;1.02;;;27.60;1.00;;;;;;5057020;28;20044;-27
2023/08/23 11:56:39;;;;;;;6.03;1.45;;;27.20;1.00;;;;;;5060452;28;20045;-27
2023/08/23 11:59:05;;;;;;;3.53;1.20;;;27.30;1.00;;;;;;5052229;28;20091;-27
2023/08/23 12:01:30;;;;;;;3.83;0.95;;;27.40;1.00;;;;;;5052062;28;20467;-27
2023/08/23 12:03:56;;;;;;;3.45;1.17;;;27.40;24.40;;;;;;5052995;28;20111;-26
2023/08/23 12:06:22;;;;;;;5.85;0.80;;;27.30;1.00;;;;;;5057662;28;20032;-27
2023/08/23 12:08:48;;;;;;;4.32;0.90;;;27.50;1.00;;;;;;5067646;28;20483;-27
2023/08/23 12:11:14;;;;;;;3.85;0.60;;;27.40;1.00;;;;;;5071281;28;20040;-25
2023/08/23 12:13:41;;;;;;;1.73;0.73;;;27.80;1.00;;;;;;5056196;28;20414;-27
2023/08/23 12:16:07;;;;;;;2.22;0.93;;;28.00;1.00;;;;;;5065605;28;20532;-27
2023/08/23 12:18:34;;;;;;;2.17;0.90;;;27.80;1.00;;;;;;5060725;28;20403;-27
2023/08/23 12:20:59;;;;;;;2.92;0.93;;;27.50;1.00;;;;;;5062120;28;21637;-27
2023/08/23 12:23:25;;;;;;;3.80;1.13;;;27.50;1.00;;;;;;5056122;28;20123;-27
2023/08/23 12:25:51;;;;;;;3.00;1.00;;;27.50;1.00;;;;;;5063474;28;20471;-27
2023/08/23 12:28:17;;;;;;;4.38;0.82;;;27.60;1.00;;;;;;5059402;28;20387;-27